Time;durP1;ratioP1;P1;durP2;ratioP2;P2;SDS_P1;SDS_P2;PMS_P1;PMS_P2;Temp;Humidity;BMP_temperature;BMP_pressure;BME280_temperature;BME280_humidity;BME280_pressure;Samples;Min_cycle;Max_cycle;Signal;HPM_P1;HPM_P2
2022/05/14 00:01:42;;;;;;;11.95;3.53;;;;;;;12.52;61.35;99571.91;5173799;28;20185;-81
2022/05/14 00:04:32;;;;;;;9.00;3.85;;;;;;;12.52;61.81;99564.78;5164430;28;20054;-82
2022/05/14 00:07:23;;;;;;;5.90;3.42;;;;;;;12.33;62.16;99570.09;5150737;28;20050;-82
2022/05/14 00:10:15;;;;;;;6.85;3.05;;;;;;;12.49;62.71;99599.63;5163954;28;20608;-83
2022/05/14 00:13:05;;;;;;;5.78;3.38;;;;;;;12.54;62.44;99578.75;5158637;28;20053;-81
2022/05/14 00:16:03;;;;;;;8.82;3.75;;;;;;;12.43;62.28;99576.25;5154300;28;20077;-81
2022/05/14 00:18:53;;;;;;;12.45;3.60;;;;;;;12.28;62.50;99582.97;5133505;28;20089;-81
2022/05/14 00:21:43;;;;;;;13.25;4.30;;;;;;;12.11;62.40;99565.91;5164691;28;20054;-81
2022/05/14 00:24:33;;;;;;;9.10;3.85;;;;;;;12.13;63.52;99583.41;5145535;28;20110;-82
2022/05/14 00:27:24;;;;;;;11.18;3.63;;;;;;;12.13;63.48;99574.59;5164377;28;20185;-82
2022/05/14 00:30:16;;;;;;;8.70;4.47;;;;;;;12.18;63.05;99590.94;5150108;28;20050;-82
2022/05/14 00:33:07;;;;;;;8.13;3.90;;;;;;;12.14;63.78;99600.19;5152843;28;20508;-82
2022/05/14 00:35:58;;;;;;;9.38;3.83;;;;;;;11.81;63.69;99564.16;5150726;28;20058;-81
2022/05/14 00:38:48;;;;;;;12.25;3.97;;;;;;;11.59;64.79;99582.03;5164203;28;20655;-82
2022/05/14 00:41:39;;;;;;;9.52;3.97;;;;;;;11.81;64.88;99577.44;5161238;28;20061;-81
2022/05/14 00:44:29;;;;;;;13.90;4.55;;;;;;;11.93;64.23;99595.00;5146585;28;20064;-81
2022/05/14 00:47:20;;;;;;;12.85;4.70;;;;;;;11.81;64.66;99580.94;5145525;28;20058;-82
2022/05/14 00:50:35;;;;;;;10.10;4.05;;;;;;;11.73;65.05;99584.28;5159318;28;20049;-81
2022/05/14 00:53:37;;;;;;;10.82;4.25;;;;;;;12.05;64.40;99588.56;5149962;28;20054;-81
2022/05/14 00:56:34;;;;;;;7.13;3.85;;;;;;;11.72;64.46;99561.38;5159314;28;20081;-81
2022/05/14 00:59:26;;;;;;;9.20;4.10;;;;;;;11.76;64.28;99586.69;5157436;28;20157;-82
2022/05/14 01:02:17;;;;;;;9.45;3.63;;;;;;;11.72;63.95;99577.31;5139365;28;20057;-82
2022/05/14 01:05:10;;;;;;;12.43;3.60;;;;;;;11.76;64.45;99569.91;5158028;28;20042;-81
2022/05/14 01:08:03;;;;;;;7.10;4.30;;;;;;;11.75;64.41;99561.09;5145387;28;20445;-81
2022/05/14 01:10:53;;;;;;;12.77;4.50;;;;;;;11.77;63.89;99580.38;5155716;28;20336;-81
2022/05/14 01:13:43;;;;;;;11.05;4.50;;;;;;;11.57;64.80;99573.34;5164478;28;20061;-82
2022/05/14 01:16:34;;;;;;;9.60;5.13;;;;;;;11.45;64.89;99564.63;5159855;28;20054;-82
2022/05/14 01:19:25;;;;;;;8.25;4.35;;;;;;;11.25;65.35;99566.41;5164047;28;20054;-82
2022/05/14 01:22:22;;;;;;;6.32;4.10;;;;;;;11.24;65.57;99585.13;5144867;28;20081;-83
2022/05/14 01:29:04;;;;;;;;;;;;;;;11.23;65.97;99581.63;5151288;28;20139;-82
2022/05/14 01:31:56;;;;;;;8.50;4.63;;;;;;;11.18;66.67;99575.88;5144023;28;19922;-83
2022/05/14 01:34:47;;;;;;;8.40;4.68;;;;;;;11.32;65.10;99558.72;5150383;28;20758;-82
2022/05/14 01:37:39;;;;;;;9.63;4.32;;;;;;;11.10;65.47;99575.72;5149156;28;20054;-81
2022/05/14 01:40:31;;;;;;;8.98;4.72;;;;;;;11.21;66.10;99588.88;5161539;28;20078;-80
2022/05/14 01:43:22;;;;;;;10.55;4.85;;;;;;;11.02;65.58;99543.66;5163428;28;20051;-82
2022/05/14 01:46:12;;;;;;;16.63;5.10;;;;;;;11.29;66.77;99590.84;5147701;28;20246;-82
2022/05/14 01:49:03;;;;;;;7.40;4.78;;;;;;;11.32;65.75;99560.56;5149790;28;20144;-81
2022/05/14 01:51:55;;;;;;;10.20;4.28;;;;;;;11.01;64.49;99564.06;5148927;28;20054;-82
2022/05/14 01:54:46;;;;;;;9.45;4.90;;;;;;;10.91;65.42;99559.69;5162575;28;20762;-82
2022/05/14 01:57:36;;;;;;;9.20;4.70;;;;;;;11.10;65.66;99570.41;5163209;28;20521;-81
2022/05/14 02:00:26;;;;;;;9.77;4.63;;;;;;;10.90;64.97;99558.03;5163599;28;20089;-82
2022/05/14 02:03:17;;;;;;;11.30;5.63;;;;;;;10.81;66.18;99555.16;5145532;28;20453;-82
2022/05/14 02:06:08;;;;;;;9.90;4.78;;;;;;;10.81;66.28;99564.94;5166098;28;20054;-82
2022/05/14 02:09:00;;;;;;;8.27;4.20;;;;;;;10.80;65.44;99566.75;5157650;28;20456;-82
2022/05/14 02:11:51;;;;;;;12.38;5.03;;;;;;;10.90;66.08;99565.97;5163765;28;20145;-82
2022/05/14 02:15:03;;;;;;;9.85;4.95;;;;;;;10.93;67.27;99574.50;5165634;28;20053;-82
2022/05/14 02:17:54;;;;;;;14.55;5.97;;;;;;;10.98;67.68;99577.59;5171601;28;20053;-82
2022/05/14 02:20:45;;;;;;;14.20;5.88;;;;;;;11.22;67.02;99582.59;5156410;28;20593;-82
2022/05/14 02:23:38;;;;;;;13.23;5.95;;;;;;;11.04;66.85;99573.59;5167984;28;20058;-82
2022/05/14 02:26:28;;;;;;;13.50;5.97;;;;;;;10.86;67.61;99556.59;5156321;28;20061;-82
2022/05/14 02:29:19;;;;;;;14.07;5.78;;;;;;;10.86;67.94;99559.22;5158519;28;20089;-82
2022/05/14 02:32:09;;;;;;;11.27;5.43;;;;;;;11.09;67.95;99578.47;5156482;28;20152;-82
2022/05/14 02:34:59;;;;;;;13.43;6.40;;;;;;;11.16;68.05;99580.50;5168625;28;20061;-82
2022/05/14 02:37:50;;;;;;;11.05;5.60;;;;;;;11.10;67.58;99572.22;5148453;28;20065;-82
2022/05/14 02:40:40;;;;;;;14.00;4.90;;;;;;;10.95;68.36;99555.78;5150738;28;20054;-82
2022/05/14 02:43:32;;;;;;;14.10;5.50;;;;;;;11.01;67.66;99563.22;5184775;23;20046;-72
2022/05/14 02:46:24;;;;;;;11.07;5.13;;;;;;;11.01;67.42;99581.81;5179021;28;20057;-72
2022/05/14 02:49:14;;;;;;;8.82;4.70;;;;;;;10.96;69.05;99589.31;5186732;28;20423;-72
2022/05/14 02:52:05;;;;;;;10.00;4.85;;;;;;;10.88;68.88;99576.72;5191239;28;20514;-72
2022/05/14 02:54:56;;;;;;;11.75;4.78;;;;;;;10.89;68.76;99580.19;5175165;28;20433;-72
2022/05/14 02:57:47;;;;;;;10.25;5.13;;;;;;;10.71;68.81;99572.84;5172893;28;20195;-72
2022/05/14 03:00:37;;;;;;;9.90;4.85;;;;;;;10.90;67.00;99581.91;5181887;28;20054;-72
2022/05/14 03:03:27;;;;;;;7.80;5.00;;;;;;;10.88;67.41;99586.47;5175060;28;20054;-72
2022/05/14 03:06:18;;;;;;;8.60;4.60;;;;;;;10.93;67.02;99584.28;5180726;28;20050;-72
2022/05/14 03:09:08;;;;;;;7.18;4.85;;;;;;;10.86;67.58;99585.75;5177909;28;20056;-72
2022/05/14 03:11:59;;;;;;;8.00;4.70;;;;;;;10.84;67.35;99579.75;5175231;28;20139;-72
2022/05/14 03:14:51;;;;;;;8.93;4.70;;;;;;;10.74;67.41;99590.31;5174207;28;20057;-72
2022/05/14 03:17:42;;;;;;;10.32;4.70;;;;;;;10.67;67.37;99587.34;5183941;28;20057;-72
2022/05/14 03:20:33;;;;;;;9.60;5.00;;;;;;;10.47;67.37;99586.38;5175334;28;20061;-72
2022/05/14 03:23:24;;;;;;;9.25;4.50;;;;;;;10.26;66.79;99583.69;5183224;28;20050;-72
2022/05/14 03:26:15;;;;;;;11.45;4.95;;;;;;;10.45;67.64;99587.47;5173142;28;20630;-72
2022/05/14 03:29:05;;;;;;;9.07;4.80;;;;;;;10.49;67.15;99586.22;5169113;28;20527;-72
2022/05/14 03:31:57;;;;;;;11.40;4.75;;;;;;;10.41;67.08;99588.69;5166694;28;20056;-72
2022/05/14 03:34:48;;;;;;;7.50;4.50;;;;;;;10.14;67.08;99554.69;5176149;28;20526;-72
2022/05/14 03:37:38;;;;;;;13.40;5.32;;;;;;;10.29;66.37;99595.84;5180139;28;20203;-72
2022/05/14 03:40:28;;;;;;;12.52;5.32;;;;;;;10.18;67.52;99591.41;5171064;28;20048;-72
2022/05/14 03:43:18;;;;;;;15.05;5.35;;;;;;;10.12;67.92;99597.22;5167516;28;20634;-72
2022/05/14 03:46:09;;;;;;;6.75;4.65;;;;;;;10.08;68.82;99590.47;5175738;28;20046;-72
2022/05/14 03:49:00;;;;;;;9.07;4.53;;;;;;;10.13;67.70;99590.94;5175934;28;20061;-72
2022/05/14 03:51:52;;;;;;;11.45;5.18;;;;;;;10.32;68.29;99601.72;5157840;28;20057;-72
2022/05/14 03:54:45;;;;;;;9.98;4.78;;;;;;;10.37;67.99;99597.88;5175385;28;20049;-72
2022/05/14 03:57:36;;;;;;;13.00;5.28;;;;;;;10.35;66.86;99601.47;5178457;28;20064;-72
2022/05/14 04:00:26;;;;;;;10.10;5.63;;;;;;;10.24;67.69;99593.56;5178068;28;20532;-72
2022/05/14 04:03:17;;;;;;;12.43;5.93;;;;;;;10.26;67.54;99602.22;5178659;28;20184;-72
2022/05/14 04:06:08;;;;;;;9.65;5.40;;;;;;;10.43;66.65;99598.22;5177823;28;20098;-71
2022/05/14 04:08:59;;;;;;;15.18;5.35;;;;;;;10.14;66.26;99592.63;5172674;28;20057;-72
2022/05/14 04:11:49;;;;;;;6.45;4.85;;;;;;;10.08;67.93;99593.97;5179624;28;20496;-72
2022/05/14 04:14:40;;;;;;;12.02;4.72;;;;;;;10.04;68.01;99586.41;5175881;28;20493;-75
2022/05/14 04:17:31;;;;;;;8.65;5.45;;;;;;;9.92;69.90;99588.25;5179329;28;20065;-73
2022/05/14 04:20:23;;;;;;;13.38;5.50;;;;;;;10.14;68.80;99592.63;5177251;28;20057;-73
2022/05/14 04:23:14;;;;;;;7.85;4.93;;;;;;;10.24;68.95;99590.06;5175534;28;20167;-72
2022/05/14 04:26:05;;;;;;;12.73;5.68;;;;;;;10.15;69.46;99582.88;5180421;28;20191;-76
2022/05/14 04:28:56;;;;;;;10.93;5.53;;;;;;;10.29;69.92;99595.84;5177085;28;20148;-71
2022/05/14 04:31:46;;;;;;;9.68;5.32;;;;;;;10.42;69.22;99591.19;5179464;28;20107;-72
2022/05/14 04:34:37;;;;;;;14.35;4.82;;;;;;;10.32;69.35;99600.91;5176813;28;20100;-72
2022/05/14 04:37:27;;;;;;;11.98;5.82;;;;;;;10.41;69.34;99583.41;5177064;28;20577;-72
2022/05/14 04:40:18;;;;;;;10.55;6.32;;;;;;;10.62;69.71;99594.00;5167548;28;20123;-72
2022/05/14 04:43:11;;;;;;;13.65;6.20;;;;;;;10.68;70.56;99601.44;5176886;28;20049;-70
2022/05/14 04:46:07;;;;;;;14.73;5.95;;;;;;;10.82;69.13;99606.41;5179627;28;20046;-70
2022/05/14 04:48:58;;;;;;;10.93;6.03;;;;;;;10.74;69.45;99604.41;5175363;28;20048;-72
2022/05/14 04:51:48;;;;;;;12.68;5.80;;;;;;;10.48;71.07;99614.56;5179150;28;20670;-71
2022/05/14 04:54:39;;;;;;;10.32;6.07;;;;;;;10.66;70.58;99609.53;5172372;28;20136;-71
2022/05/14 04:57:29;;;;;;;14.13;6.28;;;;;;;10.76;69.17;99615.75;5175017;28;20240;-70
2022/05/14 05:00:20;;;;;;;9.68;6.03;;;;;;;10.69;69.50;99606.59;5182142;28;20061;-72
2022/05/14 05:03:17;;;;;;;9.98;6.05;;;;;;;10.71;68.66;99607.31;5176576;28;20546;-71
2022/05/14 05:06:13;;;;;;;15.50;6.22;;;;;;;10.80;69.51;99617.16;5180738;28;20112;-70
2022/05/14 05:09:05;;;;;;;7.10;5.05;;;;;;;10.78;67.97;99608.47;5175850;28;20532;-71
2022/05/14 05:11:56;;;;;;;9.00;6.13;;;;;;;10.76;69.37;99615.75;5188089;28;20133;-71
2022/05/14 05:14:46;;;;;;;16.88;6.40;;;;;;;11.25;69.52;99629.25;5178090;28;20062;-71
2022/05/14 05:17:36;;;;;;;14.30;6.07;;;;;;;11.47;69.00;99630.91;5176568;28;20104;-71
2022/05/14 05:20:26;;;;;;;11.90;7.55;;;;;;;11.62;68.82;99621.59;5172832;28;20468;-71
2022/05/14 05:23:19;;;;;;;11.10;7.13;;;;;;;11.59;69.05;99634.28;5181577;28;20056;-72
2022/05/14 05:26:10;;;;;;;14.40;6.82;;;;;;;11.68;68.17;99617.56;5176450;28;20049;-71
2022/05/14 05:29:00;;;;;;;11.68;6.65;;;;;;;11.79;67.91;99625.44;5175159;28;20492;-73
2022/05/14 05:31:50;;;;;;;17.17;6.90;;;;;;;12.06;67.23;99632.78;5177351;28;20161;-72
2022/05/14 05:34:41;;;;;;;11.32;6.75;;;;;;;12.37;66.35;99628.19;5179077;28;20061;-72
2022/05/14 05:37:31;;;;;;;16.83;6.90;;;;;;;12.58;65.43;99627.19;5179802;28;20050;-72
2022/05/14 05:40:21;;;;;;;16.67;7.47;;;;;;;12.57;66.62;99639.66;5189365;28;20061;-72
2022/05/14 05:43:12;;;;;;;12.15;6.40;;;;;;;12.62;66.12;99621.47;5180290;28;20049;-72
2022/05/14 05:46:03;;;;;;;11.93;6.57;;;;;;;12.74;66.34;99629.28;5179045;28;20075;-72
2022/05/14 05:48:53;;;;;;;8.90;6.30;;;;;;;12.96;65.66;99622.81;5178562;28;20104;-72
2022/05/14 05:51:43;;;;;;;10.65;6.32;;;;;;;13.42;64.29;99626.47;5178579;28;20421;-72
2022/05/14 05:57:43;;;;;;;11.10;5.75;;;;;;;13.23;65.44;99630.00;5179301;28;20184;-72
2022/05/14 06:00:34;;;;;;;13.63;6.22;;;;;;;13.36;65.04;99623.41;5182638;28;20056;-72
2022/05/14 06:03:24;;;;;;;7.90;5.13;;;;;;;13.30;65.64;99608.00;5188203;28;20180;-72
2022/05/14 06:06:15;;;;;;;10.57;5.53;;;;;;;13.32;65.23;99614.03;5168616;28;20070;-71
2022/05/14 06:09:05;;;;;;;14.38;5.65;;;;;;;13.84;63.20;99622.34;5181528;28;20713;-71
2022/05/14 06:11:58;;;;;;;10.25;5.18;;;;;;;13.90;63.52;99626.22;5179126;28;20046;-71
2022/05/14 06:14:48;;;;;;;8.35;5.50;;;;;;;14.01;64.03;99628.69;5178400;28;20531;-71
2022/05/14 06:17:38;;;;;;;12.10;5.32;;;;;;;14.17;63.49;99621.84;5179987;28;20068;-71
2022/05/14 06:20:28;;;;;;;10.45;5.22;;;;;;;14.32;62.78;99637.16;5178752;28;20511;-71
2022/05/14 06:23:23;;;;;;;14.88;8.20;;;;;;;14.38;64.17;99633.06;5179001;28;21625;-71
2022/05/14 06:26:14;;;;;;;17.75;6.22;;;;;;;14.90;62.32;99621.66;5178807;28;20594;-71
2022/05/14 06:29:05;;;;;;;10.40;5.50;;;;;;;15.04;61.89;99640.63;5177459;28;20563;-71
2022/05/14 06:31:55;;;;;;;7.22;5.03;;;;;;;14.97;62.22;99642.25;5178958;28;20058;-71
2022/05/14 06:34:45;;;;;;;12.18;5.10;;;;;;;14.90;61.71;99633.19;5177149;28;20408;-71
2022/05/14 06:37:36;;;;;;;12.48;5.13;;;;;;;15.16;61.79;99635.84;5169560;28;20056;-71
2022/05/14 06:40:26;;;;;;;12.27;5.65;;;;;;;15.23;61.09;99633.38;5178507;28;20109;-71
2022/05/14 06:43:17;;;;;;;8.68;5.13;;;;;;;15.63;60.73;99629.25;5180383;28;20048;-71
2022/05/14 06:46:07;;;;;;;10.60;5.00;;;;;;;15.86;58.93;99629.53;5176750;28;20073;-71
2022/05/14 06:48:57;;;;;;;10.77;4.90;;;;;;;15.73;61.72;99638.03;5180926;28;20046;-71
2022/05/14 06:51:48;;;;;;;9.35;5.03;;;;;;;15.86;61.85;99627.72;5186241;28;20053;-71
2022/05/14 06:54:40;;;;;;;8.60;4.32;;;;;;;16.31;58.22;99621.09;5184047;28;20466;-72
2022/05/14 06:57:33;;;;;;;10.32;4.65;;;;;;;16.34;56.61;99628.81;5181711;28;20068;-71
2022/05/14 07:00:23;;;;;;;10.60;4.40;;;;;;;16.23;57.08;99644.34;5193930;28;20057;-71
2022/05/14 07:06:38;;;;;;;9.25;4.10;;;;;;;16.60;57.34;99642.06;5181937;28;20060;-72
2022/05/14 07:09:29;;;;;;;10.23;4.55;;;;;;;16.82;56.75;99639.72;5177418;28;20057;-73
2022/05/14 07:12:20;;;;;;;11.32;4.38;;;;;;;17.68;54.84;99649.78;5180468;28;20160;-68
2022/05/14 07:15:12;;;;;;;6.45;3.95;;;;;;;19.45;50.71;99633.56;5182604;28;20049;-71
2022/05/14 07:18:03;;;;;;;10.88;3.47;;;;;;;20.52;46.90;99648.34;5183209;28;20236;-68
2022/05/14 07:20:53;;;;;;;7.68;3.35;;;;;;;21.30;45.77;99649.19;5184109;28;20085;-71
2022/05/14 07:23:43;;;;;;;9.35;3.20;;;;;;;21.66;43.86;99632.84;5180214;28;20076;-69
2022/05/14 07:26:39;;;;;;;11.13;3.40;;;;;;;22.40;42.50;99647.47;5178507;28;20567;-71
2022/05/14 07:29:30;;;;;;;9.43;3.20;;;;;;;22.56;40.94;99643.56;5181813;28;20064;-70
2022/05/14 07:32:20;;;;;;;11.95;2.63;;;;;;;21.90;43.77;99650.38;5183750;28;20058;-70
2022/05/14 07:35:11;;;;;;;10.65;2.42;;;;;;;23.04;40.61;99649.63;5183106;28;20050;-70
2022/05/14 07:38:05;;;;;;;10.52;2.80;;;;;;;21.67;41.92;99639.06;5163262;28;20053;-71
2022/05/14 07:40:56;;;;;;;;;;;;;;;22.37;42.52;99643.28;5181932;28;20056;-71
2022/05/14 07:43:49;;;;;;;4.72;1.90;;;;;;;23.92;38.77;99641.97;5169407;28;19921;-70
2022/05/14 07:46:40;;;;;;;;;;;;;;;25.27;36.89;99643.59;5191317;28;20053;-68
2022/05/14 07:49:30;;;;;;;7.50;2.00;;;;;;;24.41;35.64;99642.38;5184759;28;19925;-68
2022/05/14 07:52:21;;;;;;;6.50;1.73;;;;;;;24.77;36.29;99632.75;5200055;28;20057;-69
2022/05/14 07:55:12;;;;;;;7.95;1.58;;;;;;;23.89;36.56;99641.56;5177555;28;20064;-69
2022/05/14 07:58:04;;;;;;;6.68;1.60;;;;;;;24.22;36.95;99641.41;5189863;28;20122;-69
2022/05/14 08:00:56;;;;;;;12.25;1.73;;;;;;;25.09;35.00;99638.91;5185606;28;20053;-69
2022/05/14 08:03:50;;;;;;;6.80;1.90;;;;;;;24.80;36.42;99635.84;5172564;28;20045;-69
2022/05/14 08:06:40;;;;;;;10.15;1.80;;;;;;;24.47;37.53;99638.78;5185364;28;20459;-69
2022/05/14 08:09:31;;;;;;;5.60;1.67;;;;;;;23.98;37.00;99629.44;5175629;28;20104;-70
2022/05/14 08:12:21;;;;;;;14.80;2.25;;;;;;;24.25;35.30;99629.31;5182659;28;20241;-70
2022/05/14 08:15:15;;;;;;;5.30;1.90;;;;;;;24.97;34.71;99638.81;5177001;28;20128;-69
2022/05/14 08:18:07;;;;;;;6.38;2.05;;;;;;;23.51;37.39;99628.75;5182228;28;20052;-70
2022/05/14 08:20:57;;;;;;;7.72;1.92;;;;;;;24.50;37.78;99632.06;5187124;28;20068;-71
2022/05/14 08:27:00;;;;;;;3.50;1.98;;;;;;;25.13;35.44;99621.16;5203254;28;20061;-69
2022/05/14 08:29:50;;;;;;;8.48;1.90;;;;;;;26.21;33.96;99617.84;5192884;28;20058;-69
2022/05/14 08:32:41;;;;;;;3.47;1.70;;;;;;;26.38;33.63;99622.63;5192141;28;20053;-69
2022/05/14 08:35:32;;;;;;;5.03;1.92;;;;;;;26.59;33.73;99629.44;5197377;28;20079;-69
2022/05/14 08:38:23;;;;;;;6.40;2.15;;;;;;;25.65;33.76;99608.09;5175534;28;20123;-69
2022/05/14 08:41:15;;;;;;;7.40;2.00;;;;;;;26.39;34.36;99619.69;5182693;28;20147;-68
2022/05/14 08:44:10;;;;;;;5.82;1.80;;;;;;;26.76;33.10;99595.09;5186210;28;20052;-68
2022/05/14 08:47:05;;;;;;;6.65;1.60;;;;;;;26.13;33.68;99618.19;5187388;28;20092;-68
2022/05/14 08:49:56;;;;;;;6.55;1.52;;;;;;;26.69;34.09;99616.94;5177353;28;20097;-68
2022/05/14 08:53:00;;;;;;;5.38;1.65;;;;;;;27.94;31.97;99593.06;5179257;28;20107;-67
2022/05/14 08:56:16;;;;;;;12.23;1.58;;;;;;;28.17;30.87;99607.69;5179230;28;20053;-73
2022/05/14 08:59:08;;;;;;;4.78;1.63;;;;;;;27.35;31.18;99616.88;5177056;28;20103;-72
2022/05/14 09:02:04;;;;;;;13.25;1.70;;;;;;;25.64;34.15;99602.91;5174219;28;20133;-71
2022/05/14 09:04:56;;;;;;;8.10;1.60;;;;;;;26.33;34.32;99600.75;5178404;28;20049;-71
2022/05/14 09:07:50;;;;;;;7.88;1.60;;;;;;;25.83;34.73;99603.72;5170818;28;20060;-72
2022/05/14 09:10:42;;;;;;;3.35;1.50;;;;;;;27.02;32.65;99604.69;5174164;28;20061;-72
2022/05/14 09:13:44;;;;;;;5.60;1.70;;;;;;;26.57;35.47;99597.06;5179500;28;20542;-71
2022/05/14 09:16:37;;;;;;;4.13;1.30;;;;;;;27.33;33.97;99597.25;5176440;28;20061;-74
2022/05/14 09:19:34;;;;;;;4.57;1.38;;;;;;;27.12;31.70;99596.75;5177773;28;20072;-71
2022/05/14 09:22:44;;;;;;;4.47;1.58;;;;;;;27.07;31.20;99602.06;5174506;28;20061;-73
2022/05/14 09:25:41;;;;;;;2.72;1.00;;;;;;;27.16;33.60;99591.69;5178277;28;20065;-71
2022/05/14 09:28:43;;;;;;;4.28;1.10;;;;;;;25.68;33.68;99588.63;5179037;28;20060;-73
2022/05/14 09:31:39;;;;;;;5.65;1.00;;;;;;;25.99;33.75;99595.78;5173963;28;20050;-71
2022/05/14 09:34:32;;;;;;;4.25;1.20;;;;;;;27.77;32.40;99586.75;5174998;28;20064;-72
2022/05/14 09:37:24;;;;;;;8.05;1.52;;;;;;;28.12;29.66;99581.16;5172489;28;20050;-72
2022/05/14 09:40:24;;;;;;;8.23;1.42;;;;;;;26.71;30.80;99582.16;5183961;28;20183;-72
2022/05/14 09:43:14;;;;;;;6.82;1.00;;;;;;;25.64;31.82;99579.28;5176085;28;20172;-71
2022/05/14 09:46:10;;;;;;;4.78;1.23;;;;;;;27.12;33.14;99587.75;5179956;28;20052;-74
2022/05/14 09:49:04;;;;;;;5.03;1.10;;;;;;;26.70;32.90;99588.69;5180931;28;20081;-72
2022/05/14 09:52:00;;;;;;;3.63;0.93;;;;;;;26.30;32.23;99587.63;5171511;28;20053;-72
2022/05/14 09:54:53;;;;;;;4.68;1.02;;;;;;;26.75;30.03;99576.25;5171092;28;20049;-72
2022/05/14 09:57:56;;;;;;;4.10;0.93;;;;;;;27.27;31.12;99581.84;5176553;28;20056;-72
2022/05/14 10:00:57;;;;;;;6.00;1.30;;;;;;;27.51;31.95;99566.28;5179152;28;20368;-72
2022/05/14 10:04:18;;;;;;;2.72;0.70;;;;;;;27.58;31.98;99578.72;5183747;28;20057;-70
2022/05/14 10:07:32;;;;;;;7.85;0.90;;;;;;;26.55;29.43;99565.72;5178799;28;20068;-72
2022/05/14 10:10:53;;;;;;;4.78;0.90;;;;;;;26.73;30.60;99575.69;5179146;28;20054;-70
2022/05/14 10:13:49;;;;;;;4.43;1.00;;;;;;;25.70;33.39;99581.09;5182085;28;20151;-69
2022/05/14 10:17:19;;;;;;;5.30;1.50;;;;;;;26.78;29.92;99568.44;5176290;28;20089;-69
2022/05/14 10:20:20;;;;;;;3.13;0.98;;;;;;;26.75;32.22;99576.25;5176992;28;20046;-69
2022/05/14 10:27:23;;;;;;;4.88;0.80;;;;;;;27.93;27.23;99568.81;5171581;28;20053;-69
2022/05/14 10:30:22;;;;;;;5.50;0.93;;;;;;;27.74;29.74;99568.13;5177677;28;20463;-71
2022/05/14 10:33:19;;;;;;;7.03;1.30;;;;;;;27.08;27.87;99551.19;5170778;28;20575;-71
2022/05/14 10:36:37;;;;;;;3.35;0.90;;;;;;;25.67;30.74;99554.38;5165240;28;20136;-73
2022/05/14 10:39:38;;;;;;;3.38;0.85;;;;;;;25.61;31.03;99547.13;5185463;28;20127;-73
2022/05/14 10:42:44;;;;;;;5.78;1.00;;;;;;;26.99;29.45;99544.44;5184307;28;20519;-73
2022/05/14 10:45:44;;;;;;;6.43;1.17;;;;;;;26.30;31.71;99544.13;5190114;28;20061;-73
2022/05/14 10:48:35;;;;;;;5.32;0.85;;;;;;;24.51;31.66;99547.84;5181517;28;20065;-70
2022/05/14 10:51:28;;;;;;;3.95;1.10;;;;;;;24.29;31.47;99535.66;5184955;28;20056;-69
2022/05/14 10:54:21;;;;;;;2.75;0.88;;;;;;;25.19;34.08;99543.47;5184750;28;20496;-69
2022/05/14 10:57:14;;;;;;;4.53;1.15;;;;;;;25.49;32.15;99536.19;5186984;28;20053;-69
2022/05/14 11:00:19;;;;;;;;;;;;;;;25.51;33.08;99544.13;5181502;28;20128;-69
2022/05/14 11:03:22;;;;;;;4.75;0.80;;;;;;;25.85;30.66;99528.25;5185839;28;20009;-73
2022/05/14 11:06:13;;;;;;;4.55;0.80;;;;;;;25.98;33.43;99531.63;5183078;28;20061;-70
2022/05/14 11:09:35;;;;;;;3.35;1.10;;;;;;;24.88;30.39;99539.78;5193981;28;20073;-70
2022/05/14 11:12:25;;;;;;;36.13;8.50;;;;;;;25.72;33.64;99532.78;5181218;28;20061;-70
2022/05/14 11:15:22;;;;;;;4.80;0.98;;;;;;;25.36;30.58;99528.22;5180913;28;20046;-68
2022/05/14 11:18:16;;;;;;;7.28;1.00;;;;;;;26.11;32.25;99522.44;5180473;28;20111;-69
2022/05/14 11:21:06;;;;;;;3.67;0.77;;;;;;;26.93;31.57;99517.13;5183114;28;20064;-69
2022/05/14 11:23:59;;;;;;;6.95;1.95;;;;;;;26.38;28.10;99514.69;5176551;28;20049;-69
2022/05/14 11:26:53;;;;;;;4.60;0.70;;;;;;;26.57;34.29;99528.25;5182433;28;20052;-69
2022/05/14 11:29:50;;;;;;;4.75;1.00;;;;;;;25.84;29.80;99521.19;5182353;28;20057;-71
2022/05/14 11:32:52;;;;;;;3.08;0.95;;;;;;;25.55;32.33;99521.72;5179802;28;21383;-72
2022/05/14 11:35:44;;;;;;;6.15;1.15;;;;;;;26.34;30.44;99520.84;5181377;28;20064;-70
2022/05/14 11:38:37;;;;;;;2.22;0.65;;;;;;;26.36;27.47;99510.56;5177856;28;20137;-74
2022/05/14 11:41:31;;;;;;;4.38;0.98;;;;;;;25.70;30.71;99506.94;5193103;28;20080;-70
2022/05/14 11:44:32;;;;;;;3.42;0.80;;;;;;;25.78;32.35;99503.88;5170787;28;20069;-71
2022/05/14 11:47:41;;;;;;;3.72;0.98;;;;;;;26.10;32.68;99518.06;5179144;28;20372;-68
2022/05/14 11:50:50;;;;;;;3.55;1.00;;;;;;;24.96;30.26;99506.94;5185054;28;20092;-69
2022/05/14 11:53:45;;;;;;;4.65;1.02;;;;;;;25.18;32.97;99517.38;5182053;28;20099;-69
2022/05/14 11:56:39;;;;;;;2.63;1.10;;;;;;;24.77;32.73;99506.09;5183822;28;20144;-69
2022/05/14 11:59:58;;;;;;;3.03;0.80;;;;;;;25.16;32.08;99498.59;5182213;28;20133;-70
2022/05/14 12:02:54;;;;;;;2.20;0.80;;;;;;;25.67;32.49;99513.66;5174966;28;20521;-70
2022/05/14 12:05:50;;;;;;;1.08;0.60;;;;;;;24.83;31.06;99509.78;5179948;28;20125;-70
2022/05/14 12:09:06;;;;;;;1.42;0.70;;;;;;;25.65;29.23;99504.88;5186027;28;20133;-70
2022/05/14 12:11:59;;;;;;;5.47;1.15;;;;;;;25.15;30.50;99499.66;5181283;28;20116;-70
2022/05/14 12:14:50;;;;;;;2.28;0.85;;;;;;;25.61;29.00;99492.84;5177993;28;20049;-70
2022/05/14 12:17:48;;;;;;;4.30;0.88;;;;;;;26.02;30.85;99489.31;5185979;28;20056;-71
2022/05/14 12:20:40;;;;;;;3.75;0.80;;;;;;;26.26;29.44;99494.84;5183193;28;20260;-70
2022/05/14 12:23:34;;;;;;;5.30;1.05;;;;;;;26.47;29.14;99488.00;5184852;28;20769;-70
2022/05/14 12:26:33;;;;;;;2.93;0.90;;;;;;;26.52;31.00;99485.41;5178295;28;20143;-71
2022/05/14 12:29:25;;;;;;;3.22;0.80;;;;;;;26.05;30.22;99471.72;5181409;28;20092;-70
2022/05/14 12:35:25;;;;;;;4.78;1.00;;;;;;;25.66;31.16;99473.13;5181545;28;20527;-70
2022/05/14 12:38:26;;;;;;;2.40;0.93;;;;;;;25.17;29.71;99445.19;5181264;28;20052;-70
2022/05/14 12:41:22;;;;;;;6.30;1.25;;;;;;;24.49;29.15;99468.59;5180170;28;20500;-70
2022/05/14 12:44:28;;;;;;;1.95;1.05;;;;;;;24.80;28.80;99464.97;5179241;28;20519;-72
2022/05/14 12:47:27;;;;;;;2.53;0.80;;;;;;;24.92;32.42;99456.09;5180770;28;20056;-70
2022/05/14 12:50:25;;;;;;;2.45;0.80;;;;;;;24.90;32.10;99463.59;5181413;28;20049;-70
2022/05/14 12:53:16;;;;;;;3.20;0.88;;;;;;;25.01;31.49;99427.59;5178081;28;20077;-70
2022/05/14 12:56:05;;;;;;;2.97;1.00;;;;;;;24.74;30.48;99454.19;5179723;28;20060;-70
2022/05/14 12:58:56;;;;;;;1.15;0.60;;;;;;;24.22;30.37;99461.75;5183934;28;20057;-70
2022/05/14 13:01:51;;;;;;;2.47;0.70;;;;;;;23.93;31.97;99455.91;5180501;28;20101;-70
2022/05/14 13:04:56;;;;;;;4.07;1.10;;;;;;;24.13;29.31;99442.22;5168651;28;20189;-70
2022/05/14 13:07:48;;;;;;;3.38;0.90;;;;;;;24.19;31.40;99457.59;5180673;28;20083;-70
2022/05/14 13:10:45;;;;;;;6.65;1.00;;;;;;;23.35;31.04;99446.03;5179268;28;20093;-70
2022/05/14 13:13:38;;;;;;;2.35;1.00;;;;;;;24.11;31.37;99447.03;5185288;28;20108;-70
2022/05/14 13:16:31;;;;;;;2.22;1.00;;;;;;;24.92;30.82;99440.63;5185123;28;20064;-70
2022/05/14 13:19:43;;;;;;;1.17;0.73;;;;;;;25.13;28.70;99441.25;5179525;28;20100;-70
2022/05/14 13:22:37;;;;;;;4.93;0.80;;;;;;;25.34;27.50;99437.25;5179734;28;20288;-70
2022/05/14 13:25:35;;;;;;;4.47;0.68;;;;;;;24.40;29.04;99437.38;5181831;28;20443;-70
2022/05/14 13:28:28;;;;;;;3.03;0.85;;;;;;;24.82;27.75;99426.78;5178271;28;20061;-70
2022/05/14 13:31:28;;;;;;;5.57;0.88;;;;;;;25.18;26.80;99422.41;5178401;28;20056;-70
2022/05/14 13:37:53;;;;;;;2.28;0.90;;;;;;;24.67;28.03;99420.88;5167740;28;20211;-69
2022/05/14 13:40:51;;;;;;;2.75;0.95;;;;;;;24.35;29.26;99415.56;5178020;28;20104;-69
2022/05/14 13:43:43;;;;;;;2.65;0.88;;;;;;;24.72;30.10;99411.03;5181530;28;20042;-71
2022/05/14 13:46:43;;;;;;;2.80;0.70;;;;;;;25.01;28.71;99422.19;5178122;28;20062;-69
2022/05/14 13:49:35;;;;;;;3.13;0.80;;;;;;;24.73;27.46;99404.53;5179359;28;20096;-69
2022/05/14 13:52:31;;;;;;;4.70;1.42;;;;;;;24.76;30.32;99406.78;5165169;28;20475;-71
2022/05/14 13:55:31;;;;;;;2.85;0.85;;;;;;;24.72;28.78;99407.47;5184146;28;20053;-69
2022/05/14 13:58:24;;;;;;;6.00;0.88;;;;;;;24.32;29.58;99414.09;5183266;28;20139;-69
2022/05/14 14:01:28;;;;;;;2.47;0.98;;;;;;;24.17;30.81;99391.94;5183119;28;20447;-70